sensor_id;sensor_type;location;lat;lon;timestamp;pressure;altitude;pressure_sealevel;temperature;humidity
50093;BME280;35974;47.752;10.290;2024-01-10T00:02:04;94274.91;;;-7.42;100.00
50093;BME280;35974;47.752;10.290;2024-01-10T00:04:30;94296.53;;;-7.34;100.00
50093;BME280;35974;47.752;10.290;2024-01-10T00:06:57;94276.56;;;-7.41;100.00
50093;BME280;35974;47.752;10.290;2024-01-10T00:09:23;94284.56;;;-7.32;100.00
50093;BME280;35974;47.752;10.290;2024-01-10T00:11:50;94271.78;;;-7.31;100.00
50093;BME280;35974;47.752;10.290;2024-01-10T00:14:16;94290.44;;;-7.16;100.00
50093;BME280;35974;47.752;10.290;2024-01-10T00:16:49;94278.59;;;-7.17;100.00
50093;BME280;35974;47.752;10.290;2024-01-10T00:19:16;94277.94;;;-7.05;100.00
50093;BME280;35974;47.752;10.290;2024-01-10T00:21:42;94268.66;;;-7.06;100.00
50093;BME280;35974;47.752;10.290;2024-01-10T00:24:09;94281.38;;;-7.06;100.00
50093;BME280;35974;47.752;10.290;2024-01-10T00:26:35;94268.44;;;-7.17;100.00
50093;BME280;35974;47.752;10.290;2024-01-10T00:29:02;94263.69;;;-7.23;100.00
50093;BME280;35974;47.752;10.290;2024-01-10T00:31:30;94277.88;;;-7.19;100.00
50093;BME280;35974;47.752;10.290;2024-01-10T00:33:57;94258.78;;;-7.26;100.00
50093;BME280;35974;47.752;10.290;2024-01-10T00:36:32;94268.78;;;-7.23;100.00
50093;BME280;35974;47.752;10.290;2024-01-10T00:38:58;94266.56;;;-7.44;100.00
50093;BME280;35974;47.752;10.290;2024-01-10T00:41:25;94271.66;;;-7.44;100.00
50093;BME280;35974;47.752;10.290;2024-01-10T00:44:01;94260.16;;;-7.51;100.00
50093;BME280;35974;47.752;10.290;2024-01-10T00:46:28;94262.38;;;-7.45;100.00
50093;BME280;35974;47.752;10.290;2024-01-10T00:48:54;94273.66;;;-7.34;100.00
50093;BME280;35974;47.752;10.290;2024-01-10T00:51:21;94269.31;;;-7.32;100.00
50093;BME280;35974;47.752;10.290;2024-01-10T00:53:47;94263.66;;;-7.38;100.00
50093;BME280;35974;47.752;10.290;2024-01-10T00:56:14;94276.03;;;-7.31;100.00
50093;BME280;35974;47.752;10.290;2024-01-10T00:58:40;94277.66;;;-7.30;100.00
50093;BME280;35974;47.752;10.290;2024-01-10T01:01:08;94282.94;;;-7.33;100.00
50093;BME280;35974;47.752;10.290;2024-01-10T01:03:34;94276.19;;;-7.34;100.00
50093;BME280;35974;47.752;10.290;2024-01-10T01:06:02;94284.03;;;-7.23;100.00
50093;BME280;35974;47.752;10.290;2024-01-10T01:08:29;94280.44;;;-7.19;100.00
50093;BME280;35974;47.752;10.290;2024-01-10T01:10:55;94285.19;;;-7.13;100.00
50093;BME280;35974;47.752;10.290;2024-01-10T01:13:22;94289.13;;;-7.23;100.00
50093;BME280;35974;47.752;10.290;2024-01-10T01:15:59;94288.94;;;-7.20;100.00
50093;BME280;35974;47.752;10.290;2024-01-10T01:18:25;94312.78;;;-7.07;100.00
50093;BME280;35974;47.752;10.290;2024-01-10T01:20:52;94290.53;;;-7.18;100.00
50093;BME280;35974;47.752;10.290;2024-01-10T01:23:20;94298.63;;;-7.11;100.00
50093;BME280;35974;47.752;10.290;2024-01-10T01:26:04;94275.69;;;-7.25;100.00
50093;BME280;35974;47.752;10.290;2024-01-10T01:28:30;94302.44;;;-7.04;100.00
50093;BME280;35974;47.752;10.290;2024-01-10T01:31:02;94297.34;;;-7.04;100.00
50093;BME280;35974;47.752;10.290;2024-01-10T01:33:29;94298.09;;;-7.02;100.00
50093;BME280;35974;47.752;10.290;2024-01-10T01:36:15;94310.81;;;-6.87;100.00
50093;BME280;35974;47.752;10.290;2024-01-10T01:38:47;94304.13;;;-6.88;100.00
50093;BME280;35974;47.752;10.290;2024-01-10T01:41:14;94312.50;;;-6.72;100.00
50093;BME280;35974;47.752;10.290;2024-01-10T01:43:42;94308.69;;;-6.65;100.00
50093;BME280;35974;47.752;10.290;2024-01-10T01:46:12;94303.22;;;-6.73;100.00
50093;BME280;35974;47.752;10.290;2024-01-10T01:48:38;94282.88;;;-6.73;100.00
50093;BME280;35974;47.752;10.290;2024-01-10T01:51:06;94294.34;;;-6.66;100.00
50093;BME280;35974;47.752;10.290;2024-01-10T01:53:34;94308.69;;;-6.50;100.00
50093;BME280;35974;47.752;10.290;2024-01-10T01:56:12;94287.59;;;-6.67;100.00
50093;BME280;35974;47.752;10.290;2024-01-10T01:58:40;94279.97;;;-6.67;100.00
50093;BME280;35974;47.752;10.290;2024-01-10T02:01:11;94269.41;;;-6.75;100.00
50093;BME280;35974;47.752;10.290;2024-01-10T02:03:38;94293.97;;;-6.59;100.00
50093;BME280;35974;47.752;10.290;2024-01-10T02:06:04;94288.91;;;-6.59;100.00
50093;BME280;35974;47.752;10.290;2024-01-10T02:08:35;94284.72;;;-6.46;100.00
50093;BME280;35974;47.752;10.290;2024-01-10T02:11:02;94283.41;;;-6.53;100.00
50093;BME280;35974;47.752;10.290;2024-01-10T02:13:31;94288.16;;;-6.47;100.00
50093;BME280;35974;47.752;10.290;2024-01-10T02:15:59;94291.63;;;-6.48;100.00
50093;BME280;35974;47.752;10.290;2024-01-10T02:18:25;94280.69;;;-6.65;100.00
50093;BME280;35974;47.752;10.290;2024-01-10T02:20:52;94264.31;;;-6.75;100.00
50093;BME280;35974;47.752;10.290;2024-01-10T02:23:22;94271.25;;;-6.63;100.00
50093;BME280;35974;47.752;10.290;2024-01-10T02:25:51;94284.88;;;-6.49;100.00
50093;BME280;35974;47.752;10.290;2024-01-10T02:28:22;94271.97;;;-6.60;100.00
50093;BME280;35974;47.752;10.290;2024-01-10T02:30:52;94288.69;;;-6.56;100.00
50093;BME280;35974;47.752;10.290;2024-01-10T02:33:32;94274.34;;;-6.72;100.00
50093;BME280;35974;47.752;10.290;2024-01-10T02:35:58;94284.34;;;-6.69;100.00
50093;BME280;35974;47.752;10.290;2024-01-10T02:38:25;94281.41;;;-6.77;100.00
50093;BME280;35974;47.752;10.290;2024-01-10T02:40:59;94280.84;;;-6.68;100.00
50093;BME280;35974;47.752;10.290;2024-01-10T02:43:27;94294.63;;;-6.56;100.00
50093;BME280;35974;47.752;10.290;2024-01-10T02:45:55;94270.69;;;-6.68;100.00
50093;BME280;35974;47.752;10.290;2024-01-10T02:48:24;94277.25;;;-6.64;100.00
50093;BME280;35974;47.752;10.290;2024-01-10T02:50:51;94279.34;;;-6.56;100.00
50093;BME280;35974;47.752;10.290;2024-01-10T02:53:17;94252.97;;;-6.69;100.00
50093;BME280;35974;47.752;10.290;2024-01-10T02:55:44;94268.53;;;-6.59;100.00
50093;BME280;35974;47.752;10.290;2024-01-10T02:58:12;94259.44;;;-6.49;100.00
50093;BME280;35974;47.752;10.290;2024-01-10T03:00:39;94267.59;;;-6.44;100.00
50093;BME280;35974;47.752;10.290;2024-01-10T03:03:06;94262.34;;;-6.41;100.00
50093;BME280;35974;47.752;10.290;2024-01-10T03:05:33;94251.44;;;-6.57;100.00
50093;BME280;35974;47.752;10.290;2024-01-10T03:07:59;94281.81;;;-6.54;100.00
50093;BME280;35974;47.752;10.290;2024-01-10T03:10:28;94266.06;;;-6.61;100.00
50093;BME280;35974;47.752;10.290;2024-01-10T03:12:57;94253.25;;;-6.59;100.00
50093;BME280;35974;47.752;10.290;2024-01-10T03:15:29;94263.06;;;-6.53;100.00
50093;BME280;35974;47.752;10.290;2024-01-10T03:17:57;94263.44;;;-6.59;100.00
50093;BME280;35974;47.752;10.290;2024-01-10T03:20:23;94269.97;;;-6.70;100.00
50093;BME280;35974;47.752;10.290;2024-01-10T03:22:50;94269.25;;;-6.72;100.00
50093;BME280;35974;47.752;10.290;2024-01-10T03:25:17;94260.72;;;-6.71;100.00
50093;BME280;35974;47.752;10.290;2024-01-10T03:27:54;94249.78;;;-6.58;100.00
50093;BME280;35974;47.752;10.290;2024-01-10T03:30:21;94248.34;;;-6.63;100.00
50093;BME280;35974;47.752;10.290;2024-01-10T03:32:51;94240.13;;;-6.68;100.00
50093;BME280;35974;47.752;10.290;2024-01-10T03:35:17;94243.34;;;-6.64;100.00
50093;BME280;35974;47.752;10.290;2024-01-10T03:37:44;94254.88;;;-6.58;100.00
50093;BME280;35974;47.752;10.290;2024-01-10T03:40:16;94246.78;;;-6.51;100.00
50093;BME280;35974;47.752;10.290;2024-01-10T03:42:43;94247.41;;;-6.47;100.00
50093;BME280;35974;47.752;10.290;2024-01-10T03:45:10;94245.22;;;-6.39;100.00
50093;BME280;35974;47.752;10.290;2024-01-10T03:47:36;94246.50;;;-6.32;100.00
50093;BME280;35974;47.752;10.290;2024-01-10T03:50:05;94247.78;;;-6.39;100.00
50093;BME280;35974;47.752;10.290;2024-01-10T03:52:31;94242.50;;;-6.36;100.00
50093;BME280;35974;47.752;10.290;2024-01-10T03:54:58;94234.50;;;-6.30;100.00
50093;BME280;35974;47.752;10.290;2024-01-10T03:57:25;94227.56;;;-6.28;100.00
50093;BME280;35974;47.752;10.290;2024-01-10T03:59:51;94248.81;;;-6.14;100.00
50093;BME280;35974;47.752;10.290;2024-01-10T04:02:21;94249.06;;;-6.04;100.00
50093;BME280;35974;47.752;10.290;2024-01-10T04:04:49;94250.75;;;-5.91;100.00
50093;BME280;35974;47.752;10.290;2024-01-10T04:07:17;94242.41;;;-5.93;100.00
50093;BME280;35974;47.752;10.290;2024-01-10T04:09:43;94235.28;;;-5.88;100.00
50093;BME280;35974;47.752;10.290;2024-01-10T04:12:11;94252.41;;;-5.90;100.00
50093;BME280;35974;47.752;10.290;2024-01-10T04:14:38;94257.53;;;-5.77;100.00
50093;BME280;35974;47.752;10.290;2024-01-10T04:17:04;94245.28;;;-5.84;100.00
50093;BME280;35974;47.752;10.290;2024-01-10T04:19:33;94220.38;;;-5.94;100.00
50093;BME280;35974;47.752;10.290;2024-01-10T04:22:00;94248.16;;;-5.76;100.00
50093;BME280;35974;47.752;10.290;2024-01-10T04:24:34;94254.50;;;-5.69;100.00
50093;BME280;35974;47.752;10.290;2024-01-10T04:27:01;94237.56;;;-5.83;100.00
50093;BME280;35974;47.752;10.290;2024-01-10T04:29:27;94248.75;;;-5.85;100.00
50093;BME280;35974;47.752;10.290;2024-01-10T04:31:54;94254.03;;;-5.89;100.00
50093;BME280;35974;47.752;10.290;2024-01-10T04:34:20;94241.16;;;-6.00;100.00
50093;BME280;35974;47.752;10.290;2024-01-10T04:36:52;94255.00;;;-6.04;100.00
50093;BME280;35974;47.752;10.290;2024-01-10T04:39:18;94258.84;;;-6.11;100.00
50093;BME280;35974;47.752;10.290;2024-01-10T04:41:45;94249.66;;;-6.14;100.00
50093;BME280;35974;47.752;10.290;2024-01-10T04:44:12;94266.63;;;-6.00;100.00
50093;BME280;35974;47.752;10.290;2024-01-10T04:46:38;94256.63;;;-6.03;100.00
50093;BME280;35974;47.752;10.290;2024-01-10T04:49:07;94275.88;;;-5.84;100.00
50093;BME280;35974;47.752;10.290;2024-01-10T04:51:35;94262.97;;;-5.96;100.00
50093;BME280;35974;47.752;10.290;2024-01-10T04:54:01;94270.53;;;-5.94;100.00
50093;BME280;35974;47.752;10.290;2024-01-10T04:56:28;94249.28;;;-6.08;100.00
50093;BME280;35974;47.752;10.290;2024-01-10T04:58:54;94253.38;;;-6.05;100.00
50093;BME280;35974;47.752;10.290;2024-01-10T05:01:27;94259.94;;;-6.01;100.00
50093;BME280;35974;47.752;10.290;2024-01-10T05:03:53;94265.38;;;-6.07;100.00
50093;BME280;35974;47.752;10.290;2024-01-10T05:06:20;94268.84;;;-6.08;100.00
50093;BME280;35974;47.752;10.290;2024-01-10T05:08:46;94269.03;;;-6.11;100.00
50093;BME280;35974;47.752;10.290;2024-01-10T05:11:15;94270.66;;;-6.10;100.00
50093;BME280;35974;47.752;10.290;2024-01-10T05:13:44;94267.78;;;-6.18;100.00
50093;BME280;35974;47.752;10.290;2024-01-10T05:16:11;94262.84;;;-6.21;100.00
50093;BME280;35974;47.752;10.290;2024-01-10T05:18:37;94269.03;;;-6.11;100.00
50093;BME280;35974;47.752;10.290;2024-01-10T05:21:05;94283.94;;;-6.05;100.00
50093;BME280;35974;47.752;10.290;2024-01-10T05:23:31;94284.31;;;-6.11;100.00
50093;BME280;35974;47.752;10.290;2024-01-10T05:25:58;94273.59;;;-6.31;100.00
50093;BME280;35974;47.752;10.290;2024-01-10T05:28:25;94263.22;;;-6.28;100.00
50093;BME280;35974;47.752;10.290;2024-01-10T05:30:51;94279.78;;;-6.20;100.00
50093;BME280;35974;47.752;10.290;2024-01-10T05:33:20;94263.22;;;-6.28;100.00
50093;BME280;35974;47.752;10.290;2024-01-10T05:35:47;94264.88;;;-6.27;100.00
50093;BME280;35974;47.752;10.290;2024-01-10T05:38:13;94268.75;;;-6.21;100.00
50093;BME280;35974;47.752;10.290;2024-01-10T05:40:46;94283.13;;;-6.05;100.00
50093;BME280;35974;47.752;10.290;2024-01-10T05:43:12;94274.47;;;-6.17;100.00
50093;BME280;35974;47.752;10.290;2024-01-10T05:45:40;94275.50;;;-6.20;100.00
50093;BME280;35974;47.752;10.290;2024-01-10T05:48:06;94280.16;;;-6.27;100.00
50093;BME280;35974;47.752;10.290;2024-01-10T05:50:33;94269.59;;;-6.20;100.00
50093;BME280;35974;47.752;10.290;2024-01-10T05:53:00;94276.69;;;-6.26;100.00
50093;BME280;35974;47.752;10.290;2024-01-10T05:55:27;94263.41;;;-6.31;100.00
50093;BME280;35974;47.752;10.290;2024-01-10T05:57:54;94257.41;;;-6.30;100.00
50093;BME280;35974;47.752;10.290;2024-01-10T06:00:22;94265.75;;;-6.13;100.00
50093;BME280;35974;47.752;10.290;2024-01-10T06:02:55;94269.38;;;-6.17;100.00
50093;BME280;35974;47.752;10.290;2024-01-10T06:05:22;94270.50;;;-6.21;100.00
50093;BME280;35974;47.752;10.290;2024-01-10T06:07:56;94259.50;;;-6.36;100.00
50093;BME280;35974;47.752;10.290;2024-01-10T06:10:23;94280.34;;;-6.30;100.00
50093;BME280;35974;47.752;10.290;2024-01-10T06:12:50;94265.97;;;-6.45;100.00
50093;BME280;35974;47.752;10.290;2024-01-10T06:15:17;94271.25;;;-6.48;100.00
50093;BME280;35974;47.752;10.290;2024-01-10T06:17:43;94266.16;;;-6.48;100.00
50093;BME280;35974;47.752;10.290;2024-01-10T06:20:10;94276.50;;;-6.37;100.00
50093;BME280;35974;47.752;10.290;2024-01-10T06:22:49;94258.13;;;-6.56;100.00
50093;BME280;35974;47.752;10.290;2024-01-10T06:25:16;94251.44;;;-6.43;100.00
50093;BME280;35974;47.752;10.290;2024-01-10T06:27:42;94243.59;;;-6.40;100.00
50093;BME280;35974;47.752;10.290;2024-01-10T06:30:09;94261.59;;;-6.29;100.00
50093;BME280;35974;47.752;10.290;2024-01-10T06:32:52;94266.50;;;-6.26;100.00
50093;BME280;35974;47.752;10.290;2024-01-10T06:35:19;94284.50;;;-6.14;100.00
50093;BME280;35974;47.752;10.290;2024-01-10T06:37:46;94265.69;;;-6.26;100.00
50093;BME280;35974;47.752;10.290;2024-01-10T06:40:13;94272.69;;;-6.15;100.00
50093;BME280;35974;47.752;10.290;2024-01-10T06:42:40;94281.78;;;-6.26;100.00
50093;BME280;35974;47.752;10.290;2024-01-10T06:45:07;94271.03;;;-6.45;100.00
50093;BME280;35974;47.752;10.290;2024-01-10T06:47:35;94269.44;;;-6.46;100.00
50093;BME280;35974;47.752;10.290;2024-01-10T06:50:02;94268.72;;;-6.63;100.00
50093;BME280;35974;47.752;10.290;2024-01-10T06:52:28;94258.88;;;-6.83;100.00
50093;BME280;35974;47.752;10.290;2024-01-10T06:54:55;94260.88;;;-6.88;100.00
50093;BME280;35974;47.752;10.290;2024-01-10T06:57:23;94287.75;;;-6.98;100.00
50093;BME280;35974;47.752;10.290;2024-01-10T06:59:49;94270.63;;;-7.11;100.00
50093;BME280;35974;47.752;10.290;2024-01-10T07:02:16;94287.44;;;-7.08;100.00
50093;BME280;35974;47.752;10.290;2024-01-10T07:04:43;94267.13;;;-7.39;100.00
50093;BME280;35974;47.752;10.290;2024-01-10T07:07:10;94284.09;;;-7.39;100.00
50093;BME280;35974;47.752;10.290;2024-01-10T07:09:37;94274.13;;;-7.58;100.00
50093;BME280;35974;47.752;10.290;2024-01-10T07:12:05;94268.50;;;-7.79;100.00
50093;BME280;35974;47.752;10.290;2024-01-10T07:14:32;94280.72;;;-7.86;100.00
50093;BME280;35974;47.752;10.290;2024-01-10T07:16:59;94297.59;;;-7.85;100.00
50093;BME280;35974;47.752;10.290;2024-01-10T07:19:27;94288.41;;;-8.03;100.00
50093;BME280;35974;47.752;10.290;2024-01-10T07:21:54;94285.47;;;-8.12;100.00
50093;BME280;35974;47.752;10.290;2024-01-10T07:24:21;94299.22;;;-8.16;100.00
50093;BME280;35974;47.752;10.290;2024-01-10T07:26:48;94304.91;;;-8.11;100.00
50093;BME280;35974;47.752;10.290;2024-01-10T07:29:16;94298.06;;;-8.26;100.00
50093;BME280;35974;47.752;10.290;2024-01-10T07:31:43;94294.78;;;-8.28;100.00
50093;BME280;35974;47.752;10.290;2024-01-10T07:34:10;94308.63;;;-8.18;100.00
50093;BME280;35974;47.752;10.290;2024-01-10T07:36:43;94317.59;;;-8.11;100.00
50093;BME280;35974;47.752;10.290;2024-01-10T07:39:09;94300.44;;;-8.23;100.00
50093;BME280;35974;47.752;10.290;2024-01-10T07:41:46;94309.72;;;-8.22;100.00
50093;BME280;35974;47.752;10.290;2024-01-10T07:44:13;94300.03;;;-8.31;100.00
50093;BME280;35974;47.752;10.290;2024-01-10T07:46:40;94303.94;;;-8.25;100.00
50093;BME280;35974;47.752;10.290;2024-01-10T07:49:06;94301.34;;;-8.24;100.00
50093;BME280;35974;47.752;10.290;2024-01-10T07:51:38;94302.81;;;-8.20;100.00
50093;BME280;35974;47.752;10.290;2024-01-10T07:54:04;94308.81;;;-8.05;100.00
50093;BME280;35974;47.752;10.290;2024-01-10T07:56:31;94307.09;;;-8.04;100.00
50093;BME280;35974;47.752;10.290;2024-01-10T07:58:58;94329.22;;;-8.06;100.00
50093;BME280;35974;47.752;10.290;2024-01-10T08:01:24;94339.06;;;-8.00;100.00
50093;BME280;35974;47.752;10.290;2024-01-10T08:03:51;94322.66;;;-8.11;100.00
50093;BME280;35974;47.752;10.290;2024-01-10T08:06:17;94330.84;;;-8.05;100.00
50093;BME280;35974;47.752;10.290;2024-01-10T08:08:55;94354.59;;;-8.06;100.00
50093;BME280;35974;47.752;10.290;2024-01-10T08:11:22;94362.94;;;-8.04;100.00
50093;BME280;35974;47.752;10.290;2024-01-10T08:13:49;94332.13;;;-8.30;100.00
50093;BME280;35974;47.752;10.290;2024-01-10T08:16:18;94343.44;;;-8.20;100.00
50093;BME280;35974;47.752;10.290;2024-01-10T08:18:44;94335.69;;;-8.01;100.00
50093;BME280;35974;47.752;10.290;2024-01-10T08:21:12;94341.28;;;-7.94;100.00
50093;BME280;35974;47.752;10.290;2024-01-10T08:23:38;94348.72;;;-7.91;100.00
50093;BME280;35974;47.752;10.290;2024-01-10T08:26:07;94345.13;;;-7.87;100.00
50093;BME280;35974;47.752;10.290;2024-01-10T08:28:34;94361.19;;;-7.70;100.00
50093;BME280;35974;47.752;10.290;2024-01-10T08:31:01;94350.84;;;-7.67;100.00
50093;BME280;35974;47.752;10.290;2024-01-10T08:33:48;94371.28;;;-7.07;100.00
50093;BME280;35974;47.752;10.290;2024-01-10T08:36:15;94340.13;;;-7.10;100.00
50093;BME280;35974;47.752;10.290;2024-01-10T08:38:42;94384.22;;;-6.95;100.00
50093;BME280;35974;47.752;10.290;2024-01-10T08:41:08;94377.19;;;-6.90;100.00
50093;BME280;35974;47.752;10.290;2024-01-10T08:43:38;94366.81;;;-6.87;100.00
50093;BME280;35974;47.752;10.290;2024-01-10T08:46:04;94370.78;;;-6.97;100.00
50093;BME280;35974;47.752;10.290;2024-01-10T08:48:31;94377.78;;;-6.71;100.00
50093;BME280;35974;47.752;10.290;2024-01-10T08:50:58;94366.88;;;-6.58;100.00
50093;BME280;35974;47.752;10.290;2024-01-10T08:53:24;94359.44;;;-6.47;100.00
50093;BME280;35974;47.752;10.290;2024-01-10T08:55:51;94367.63;;;-6.42;100.00
50093;BME280;35974;47.752;10.290;2024-01-10T08:58:17;94370.53;;;-6.34;100.00
50093;BME280;35974;47.752;10.290;2024-01-10T09:00:44;94367.66;;;-6.13;100.00
50093;BME280;35974;47.752;10.290;2024-01-10T09:03:11;94368.16;;;-5.94;100.00
50093;BME280;35974;47.752;10.290;2024-01-10T09:05:37;94389.25;;;-5.77;100.00
50093;BME280;35974;47.752;10.290;2024-01-10T09:08:04;94369.97;;;-5.67;100.00
50093;BME280;35974;47.752;10.290;2024-01-10T09:10:31;94370.53;;;-5.76;100.00
50093;BME280;35974;47.752;10.290;2024-01-10T09:12:58;94376.16;;;-5.85;100.00
50093;BME280;35974;47.752;10.290;2024-01-10T09:15:25;94372.72;;;-5.84;100.00
50093;BME280;35974;47.752;10.290;2024-01-10T09:17:51;94379.06;;;-5.77;100.00
50093;BME280;35974;47.752;10.290;2024-01-10T09:20:18;94390.56;;;-5.70;100.00
50093;BME280;35974;47.752;10.290;2024-01-10T09:22:47;94389.78;;;-5.58;100.00
50093;BME280;35974;47.752;10.290;2024-01-10T09:25:13;94378.63;;;-5.84;100.00
50093;BME280;35974;47.752;10.290;2024-01-10T09:27:40;94404.53;;;-5.48;100.00
50093;BME280;35974;47.752;10.290;2024-01-10T09:30:20;94389.75;;;-5.43;100.00
50093;BME280;35974;47.752;10.290;2024-01-10T09:32:47;94406.41;;;-4.96;100.00
50093;BME280;35974;47.752;10.290;2024-01-10T09:35:13;94410.59;;;-4.55;100.00
50093;BME280;35974;47.752;10.290;2024-01-10T09:37:40;94384.25;;;-4.43;100.00
50093;BME280;35974;47.752;10.290;2024-01-10T09:40:07;94396.75;;;-4.12;100.00
50093;BME280;35974;47.752;10.290;2024-01-10T09:42:45;94401.44;;;-3.93;100.00
50093;BME280;35974;47.752;10.290;2024-01-10T09:45:15;94410.44;;;-3.75;100.00
50093;BME280;35974;47.752;10.290;2024-01-10T09:47:45;94412.69;;;-3.57;100.00
50093;BME280;35974;47.752;10.290;2024-01-10T09:50:15;94403.56;;;-3.74;100.00
50093;BME280;35974;47.752;10.290;2024-01-10T09:52:50;94401.84;;;-3.74;100.00
50093;BME280;35974;47.752;10.290;2024-01-10T09:55:20;94395.50;;;-3.68;100.00
50093;BME280;35974;47.752;10.290;2024-01-10T09:57:50;94402.22;;;-3.54;100.00
50093;BME280;35974;47.752;10.290;2024-01-10T10:00:16;94418.31;;;-3.78;100.00
50093;BME280;35974;47.752;10.290;2024-01-10T10:02:45;94424.97;;;-3.88;100.00
50093;BME280;35974;47.752;10.290;2024-01-10T10:05:17;94422.94;;;-4.09;100.00
50093;BME280;35974;47.752;10.290;2024-01-10T10:07:48;94409.31;;;-4.22;100.00
50093;BME280;35974;47.752;10.290;2024-01-10T10:10:19;94395.09;;;-4.13;100.00
50093;BME280;35974;47.752;10.290;2024-01-10T10:12:50;94397.34;;;-4.21;100.00
50093;BME280;35974;47.752;10.290;2024-01-10T10:15:20;94408.00;;;-4.15;100.00
50093;BME280;35974;47.752;10.290;2024-01-10T10:17:52;94399.97;;;-4.49;100.00
50093;BME280;35974;47.752;10.290;2024-01-10T10:20:24;94416.16;;;-4.35;100.00
50093;BME280;35974;47.752;10.290;2024-01-10T10:23:06;94412.28;;;-4.15;100.00
50093;BME280;35974;47.752;10.290;2024-01-10T10:25:45;94410.25;;;-3.97;100.00
50093;BME280;35974;47.752;10.290;2024-01-10T10:28:15;94398.56;;;-4.01;100.00
50093;BME280;35974;47.752;10.290;2024-01-10T10:30:55;94413.09;;;-3.89;100.00
50093;BME280;35974;47.752;10.290;2024-01-10T10:33:21;94390.41;;;-3.81;100.00
50093;BME280;35974;47.752;10.290;2024-01-10T10:35:49;94404.47;;;-3.62;100.00
50093;BME280;35974;47.752;10.290;2024-01-10T10:38:21;94426.50;;;-3.10;100.00
50093;BME280;35974;47.752;10.290;2024-01-10T10:40:50;94399.50;;;-2.54;100.00
50093;BME280;35974;47.752;10.290;2024-01-10T10:43:18;94412.84;;;-2.38;100.00
50093;BME280;35974;47.752;10.290;2024-01-10T10:45:48;94416.41;;;-2.05;100.00
50093;BME280;35974;47.752;10.290;2024-01-10T10:48:19;94414.31;;;-1.89;100.00
50093;BME280;35974;47.752;10.290;2024-01-10T10:50:59;94414.31;;;-1.89;100.00
50093;BME280;35974;47.752;10.290;2024-01-10T10:53:31;94416.44;;;-1.71;100.00
50093;BME280;35974;47.752;10.290;2024-01-10T10:55:58;94403.41;;;-1.68;100.00
50093;BME280;35974;47.752;10.290;2024-01-10T10:58:25;94403.63;;;-1.82;100.00
50093;BME280;35974;47.752;10.290;2024-01-10T11:00:52;94418.78;;;-1.79;100.00
50093;BME280;35974;47.752;10.290;2024-01-10T11:03:21;94408.50;;;-2.02;100.00
50093;BME280;35974;47.752;10.290;2024-01-10T11:05:49;94411.53;;;-1.97;100.00
50093;BME280;35974;47.752;10.290;2024-01-10T11:08:18;94400.53;;;-2.10;100.00
50093;BME280;35974;47.752;10.290;2024-01-10T11:10:49;94421.88;;;-1.98;100.00
50093;BME280;35974;47.752;10.290;2024-01-10T11:13:22;94418.97;;;-2.05;100.00
50093;BME280;35974;47.752;10.290;2024-01-10T11:21:36;94418.78;;;-1.79;100.00
50093;BME280;35974;47.752;10.290;2024-01-10T11:24:07;94401.63;;;-2.13;100.00
50093;BME280;35974;47.752;10.290;2024-01-10T11:26:39;94402.69;;;-1.93;100.00
50093;BME280;35974;47.752;10.290;2024-01-10T11:29:06;94409.16;;;-2.11;100.00
50093;BME280;35974;47.752;10.290;2024-01-10T11:31:33;94413.41;;;-1.99;100.00
50093;BME280;35974;47.752;10.290;2024-01-10T11:34:01;94404.06;;;-2.00;100.00
50093;BME280;35974;47.752;10.290;2024-01-10T11:36:31;94400.59;;;-1.65;100.00
50093;BME280;35974;47.752;10.290;2024-01-10T11:38:59;94405.03;;;-1.56;100.00
50093;BME280;35974;47.752;10.290;2024-01-10T11:41:30;94366.78;;;-1.81;100.00
50093;BME280;35974;47.752;10.290;2024-01-10T11:44:27;94404.31;;;-1.24;100.00
50093;BME280;35974;47.752;10.290;2024-01-10T11:46:56;94391.63;;;-0.93;100.00
50093;BME280;35974;47.752;10.290;2024-01-10T11:49:24;94400.19;;;-1.04;100.00
50093;BME280;35974;47.752;10.290;2024-01-10T11:52:11;94397.00;;;-0.96;100.00
50093;BME280;35974;47.752;10.290;2024-01-10T11:54:45;94397.75;;;-1.05;100.00
50093;BME280;35974;47.752;10.290;2024-01-10T11:57:28;94383.53;;;-1.21;100.00
50093;BME280;35974;47.752;10.290;2024-01-10T11:59:57;94391.16;;;-0.87;100.00
50093;BME280;35974;47.752;10.290;2024-01-10T12:02:27;94400.47;;;-0.75;100.00
50093;BME280;35974;47.752;10.290;2024-01-10T12:04:55;94402.25;;;-0.86;100.00
50093;BME280;35974;47.752;10.290;2024-01-10T12:07:22;94327.09;;;-1.66;100.00
50093;BME280;35974;47.752;10.290;2024-01-10T12:09:50;94397.94;;;-0.86;100.00
50093;BME280;35974;47.752;10.290;2024-01-10T12:12:17;94388.78;;;-0.79;100.00
50093;BME280;35974;47.752;10.290;2024-01-10T12:14:45;94376.16;;;-0.70;100.00
50093;BME280;35974;47.752;10.290;2024-01-10T12:17:13;94398.09;;;-0.66;100.00
50093;BME280;35974;47.752;10.290;2024-01-10T12:19:40;94373.94;;;-0.75;100.00
50093;BME280;35974;47.752;10.290;2024-01-10T12:22:11;94399.63;;;-0.75;100.00
50093;BME280;35974;47.752;10.290;2024-01-10T12:24:48;94393.09;;;-0.68;100.00
50093;BME280;35974;47.752;10.290;2024-01-10T12:27:17;94396.09;;;-0.63;100.00
50093;BME280;35974;47.752;10.290;2024-01-10T12:29:53;94379.75;;;-0.94;100.00
50093;BME280;35974;47.752;10.290;2024-01-10T12:32:21;94392.38;;;-0.70;100.00
50093;BME280;35974;47.752;10.290;2024-01-10T12:34:55;94387.31;;;-0.60;100.00
50093;BME280;35974;47.752;10.290;2024-01-10T12:37:25;94383.09;;;-0.50;100.00
50093;BME280;35974;47.752;10.290;2024-01-10T12:39:51;94375.00;;;-0.78;100.00
50093;BME280;35974;47.752;10.290;2024-01-10T12:42:24;94375.34;;;-0.71;100.00
50093;BME280;35974;47.752;10.290;2024-01-10T12:44:51;94372.97;;;-0.95;100.00
50093;BME280;35974;47.752;10.290;2024-01-10T12:47:21;94303.34;;;-1.79;100.00
50093;BME280;35974;47.752;10.290;2024-01-10T12:50:05;94377.38;;;-1.63;100.00
50093;BME280;35974;47.752;10.290;2024-01-10T12:52:34;94373.53;;;-1.69;100.00
50093;BME280;35974;47.752;10.290;2024-01-10T12:55:15;94377.28;;;-1.62;100.00